Time;durP1;ratioP1;P1;durP2;ratioP2;P2;SDS_P1;SDS_P2;PMS_P1;PMS_P2;Temp;Humidity;BMP_temperature;BMP_pressure;BME280_temperature;BME280_humidity;BME280_pressure;Samples;Min_cycle;Max_cycle;Signal;HPM_P1;HPM_P2
2021/10/20 00:03:00;;;;;;;80.82;64.57;;;21.80;52.30;;;;;;4655116;56;21022;-20
2021/10/20 00:08:03;;;;;;;82.50;65.85;;;21.80;52.10;;;;;;4647497;60;21030;-24
2021/10/20 00:13:07;;;;;;;86.40;68.00;;;21.80;52.10;;;;;;4647782;60;21519;-19
2021/10/20 00:18:08;;;;;;;81.03;63.70;;;21.80;52.10;;;;;;4669034;56;21082;-23
2021/10/20 00:23:09;;;;;;;78.57;62.78;;;21.80;52.00;;;;;;4647312;60;21576;-23
2021/10/20 00:28:10;;;;;;;80.60;64.60;;;21.80;52.00;;;;;;4650229;56;21631;-20
2021/10/20 00:33:11;;;;;;;79.55;63.87;;;21.80;52.00;;;;;;4658817;56;21133;-19
2021/10/20 00:38:12;;;;;;;77.45;61.65;;;21.80;51.90;;;;;;4658222;56;21185;-20
2021/10/20 00:43:13;;;;;;;77.82;62.78;;;21.80;51.90;;;;;;4656801;56;21083;-21
2021/10/20 00:48:14;;;;;;;80.40;62.55;;;21.80;51.80;;;;;;4653644;56;21480;-26
2021/10/20 00:53:15;;;;;;;79.37;61.05;;;21.80;51.80;;;;;;4687594;56;21035;-17
2021/10/20 00:58:18;;;;;;;78.10;60.35;;;21.80;51.70;;;;;;4679051;56;21098;-24
2021/10/20 01:03:19;;;;;;;75.32;59.58;;;21.80;51.70;;;;;;4651360;56;21042;-21
2021/10/20 01:08:19;;;;;;;77.78;59.72;;;21.80;51.70;;;;;;4677189;56;21564;-21
2021/10/20 01:13:20;;;;;;;79.43;61.72;;;21.80;51.70;;;;;;4648333;57;21130;-22
2021/10/20 01:18:22;;;;;;;76.53;59.60;;;21.80;51.70;;;;;;4668453;56;21046;-23
2021/10/20 01:23:23;;;;;;;72.72;58.40;;;21.80;51.50;;;;;;4658066;56;21135;-23
2021/10/20 01:28:23;;;;;;;76.00;59.38;;;21.80;51.60;;;;;;4655556;56;21071;-22
2021/10/20 01:33:24;;;;;;;75.75;58.78;;;21.80;51.50;;;;;;4660964;56;21042;-22
2021/10/20 01:38:25;;;;;;;71.68;57.28;;;21.70;51.50;;;;;;4647192;60;21246;-18
2021/10/20 01:44:00;;;;;;;71.97;58.03;;;21.70;51.40;;;;;;4674108;56;21026;-20
2021/10/20 01:49:01;;;;;;;73.47;56.60;;;21.80;51.40;;;;;;4647778;60;21118;-23
2021/10/20 01:54:02;;;;;;;69.70;54.67;;;21.70;51.30;;;;;;4661073;56;21532;-22
2021/10/20 01:59:03;;;;;;;72.55;56.28;;;21.70;51.30;;;;;;4674376;56;21050;-21
2021/10/20 02:04:09;;;;;;;70.53;54.33;;;21.70;51.30;;;;;;4651903;56;21544;-24
2021/10/20 02:09:12;;;;;;;71.87;56.97;;;21.70;51.20;;;;;;4670798;56;21519;-24
2021/10/20 02:14:14;;;;;;;68.93;55.12;;;21.70;51.20;;;;;;4727306;56;21191;-20
2021/10/20 02:19:15;;;;;;;78.03;58.63;;;21.70;51.20;;;;;;4659887;56;21050;-21
2021/10/20 02:24:16;;;;;;;68.15;54.97;;;21.80;51.20;;;;;;4649791;56;22331;-26
2021/10/20 02:29:17;;;;;;;64.65;51.90;;;21.70;51.20;;;;;;4671838;56;21051;-21
2021/10/20 02:34:20;;;;;;;65.93;53.03;;;21.70;51.10;;;;;;4648114;60;21035;-20
2021/10/20 02:39:21;;;;;;;70.15;54.28;;;21.70;51.10;;;;;;4647769;60;21647;-22
2021/10/20 02:44:22;;;;;;;66.43;54.00;;;21.70;51.10;;;;;;4648289;60;21141;-19
2021/10/20 02:49:23;;;;;;;67.30;53.53;;;21.70;51.10;;;;;;4648210;60;21019;-23
2021/10/20 02:54:23;;;;;;;66.62;52.67;;;21.70;51.60;;;;;;4647932;60;21587;-23
2021/10/20 02:59:24;;;;;;;65.18;50.25;;;21.70;50.90;;;;;;4659380;56;21488;-24
2021/10/20 03:04:25;;;;;;;66.55;52.88;;;21.70;50.90;;;;;;4669138;56;21018;-20
2021/10/20 03:09:27;;;;;;;63.90;50.55;;;21.70;51.10;;;;;;4654031;56;21094;-25
2021/10/20 03:14:28;;;;;;;65.82;50.90;;;21.70;50.80;;;;;;4648712;60;21497;-18
2021/10/20 03:19:29;;;;;;;65.47;50.58;;;21.70;50.80;;;;;;4658890;56;21015;-19
2021/10/20 03:24:29;;;;;;;63.58;49.88;;;21.70;50.80;;;;;;4655979;56;21559;-19
2021/10/20 03:29:30;;;;;;;64.60;50.12;;;21.70;50.80;;;;;;4658037;56;21063;-19
2021/10/20 03:34:31;;;;;;;63.22;49.80;;;21.70;50.80;;;;;;4664184;56;21098;-19
2021/10/20 03:39:32;;;;;;;62.25;48.63;;;21.70;50.80;;;;;;4647232;56;21121;-27
2021/10/20 03:44:33;;;;;;;62.00;49.15;;;21.70;50.70;;;;;;4647789;56;21500;-21
2021/10/20 03:49:34;;;;;;;59.47;47.70;;;21.70;50.70;;;;;;4661581;56;21024;-23
2021/10/20 03:54:34;;;;;;;60.53;48.53;;;21.70;50.60;;;;;;4689120;56;21553;-23
2021/10/20 03:59:36;;;;;;;59.03;48.05;;;21.70;50.50;;;;;;4672686;56;21051;-23
2021/10/20 04:04:37;;;;;;;57.30;45.95;;;21.70;50.50;;;;;;4655788;56;21038;-23
2021/10/20 04:09:38;;;;;;;56.75;46.40;;;21.70;50.50;;;;;;4647904;60;21433;-24
2021/10/20 04:14:38;;;;;;;58.63;45.85;;;21.70;50.50;;;;;;4648065;60;21050;-22
2021/10/20 04:19:39;;;;;;;55.88;45.38;;;21.70;50.50;;;;;;4654721;56;21632;-24
2021/10/20 04:24:40;;;;;;;54.45;45.70;;;21.70;50.50;;;;;;4681352;56;21106;-24
2021/10/20 04:29:41;;;;;;;57.00;45.58;;;21.70;50.50;;;;;;4663826;56;21101;-24
2021/10/20 04:34:42;;;;;;;53.90;43.28;;;21.70;50.50;;;;;;4671004;56;21185;-24
2021/10/20 04:39:43;;;;;;;55.15;44.80;;;21.70;50.70;;;;;;4656077;56;21324;-22
2021/10/20 04:44:44;;;;;;;54.58;43.08;;;21.70;50.70;;;;;;4703582;56;22343;-19
2021/10/20 04:49:44;;;;;;;55.63;44.97;;;21.70;50.80;;;;;;4656092;56;22330;-24
2021/10/20 04:54:45;;;;;;;53.67;43.75;;;21.70;50.80;;;;;;4657292;56;21034;-23
2021/10/20 04:59:46;;;;;;;55.63;43.83;;;21.70;51.50;;;;;;4665291;56;21010;-23
2021/10/20 05:04:47;;;;;;;54.33;43.22;;;21.70;51.20;;;;;;4666863;56;21014;-22
2021/10/20 05:09:49;;;;;;;55.70;43.45;;;21.70;50.90;;;;;;4647821;60;21063;-24
2021/10/20 05:14:50;;;;;;;53.10;42.05;;;21.70;50.80;;;;;;4684686;56;21978;-23
2021/10/20 05:19:51;;;;;;;55.10;42.80;;;21.70;50.80;;;;;;4648794;60;21046;-25
2021/10/20 05:24:52;;;;;;;53.63;42.42;;;21.70;50.80;;;;;;4666398;56;21475;-20
2021/10/20 05:29:53;;;;;;;55.35;42.13;;;21.60;50.70;;;;;;4674112;56;21094;-25
2021/10/20 05:34:55;;;;;;;51.05;40.78;;;21.70;50.60;;;;;;4689410;56;21528;-22
2021/10/20 05:39:55;;;;;;;47.45;39.58;;;21.70;50.50;;;;;;4660197;56;21102;-24
2021/10/20 05:44:56;;;;;;;54.17;42.55;;;21.70;50.50;;;;;;4650263;56;21520;-22
2021/10/20 05:49:57;;;;;;;51.42;42.38;;;21.60;50.50;;;;;;4647870;60;21026;-21
2021/10/20 05:54:59;;;;;;;49.97;40.28;;;21.60;50.50;;;;;;4670684;56;21039;-19
2021/10/20 06:00:00;;;;;;;51.60;40.85;;;21.60;50.40;;;;;;4678480;56;21026;-20
2021/10/20 06:05:00;;;;;;;53.85;42.47;;;21.70;50.50;;;;;;4682268;56;21496;-22
2021/10/20 06:10:01;;;;;;;51.58;42.33;;;21.70;50.50;;;;;;4658358;56;21111;-24
2021/10/20 06:15:04;;;;;;;49.00;40.25;;;21.70;50.50;;;;;;4650062;56;21082;-22
2021/10/20 06:20:07;;;;;;;50.47;39.95;;;21.60;50.40;;;;;;4647360;60;21964;-22
2021/10/20 06:25:10;;;;;;;52.67;40.55;;;21.60;51.00;;;;;;4661512;56;20997;-24
2021/10/20 06:30:11;;;;;;;51.53;41.05;;;21.70;50.40;;;;;;4660613;56;21057;-25
2021/10/20 06:35:13;;;;;;;51.90;41.22;;;21.60;50.40;;;;;;4659600;56;21067;-20
2021/10/20 06:40:14;;;;;;;50.22;40.03;;;21.70;50.40;;;;;;4648025;56;21532;-21
2021/10/20 06:45:14;;;;;;;53.87;41.58;;;21.70;50.20;;;;;;4659698;56;21078;-20
2021/10/20 06:50:16;;;;;;;54.28;43.38;;;21.60;50.20;;;;;;4658331;56;21548;-22
2021/10/20 06:55:17;;;;;;;52.47;41.55;;;21.60;50.20;;;;;;4695154;56;21428;-23
2021/10/20 07:00:18;;;;;;;54.72;42.47;;;21.60;50.60;;;;;;4670925;56;21067;-24
2021/10/20 07:05:19;;;;;;;53.50;42.90;;;21.60;50.10;;;;;;4674977;56;21548;-21
2021/10/20 07:10:20;;;;;;;51.03;41.80;;;21.60;50.10;;;;;;4671446;56;21203;-24
2021/10/20 07:15:21;;;;;;;52.88;43.67;;;21.60;50.70;;;;;;4648033;60;21564;-22
2021/10/20 07:20:22;;;;;;;55.17;44.42;;;21.70;50.30;;;;;;4656574;56;21041;-24
2021/10/20 07:25:23;;;;;;;56.08;44.38;;;21.70;50.40;;;;;;4725581;56;21114;-23
2021/10/20 07:30:25;;;;;;;55.72;43.90;;;21.80;50.40;;;;;;4659908;56;21034;-25
2021/10/20 07:35:25;;;;;;;55.63;45.05;;;21.80;50.70;;;;;;4658850;56;21592;-21
2021/10/20 07:40:27;;;;;;;52.62;42.62;;;21.90;51.10;;;;;;4659261;56;21141;-26
2021/10/20 07:45:28;;;;;;;54.15;44.40;;;22.00;51.30;;;;;;4708558;56;21026;-22
2021/10/20 07:50:29;;;;;;;54.42;44.42;;;22.00;51.60;;;;;;4656366;56;21034;-23
2021/10/20 07:55:32;;;;;;;56.70;44.58;;;22.10;51.80;;;;;;4647447;56;22297;-24
2021/10/20 08:00:33;;;;;;;56.05;43.65;;;22.10;52.00;;;;;;4651824;56;21570;-22
2021/10/20 08:05:34;;;;;;;53.67;44.17;;;22.20;52.20;;;;;;4647676;56;21026;-23
2021/10/20 08:10:35;;;;;;;57.33;44.60;;;22.20;52.50;;;;;;4651939;56;21010;-23
2021/10/20 08:15:38;;;;;;;58.58;44.92;;;22.20;52.50;;;;;;4670474;56;21043;-19
2021/10/20 08:20:39;;;;;;;53.33;44.67;;;22.30;52.70;;;;;;4673961;56;22354;-20
2021/10/20 08:25:40;;;;;;;58.33;45.58;;;22.30;52.80;;;;;;4652430;56;21126;-16
2021/10/20 08:30:41;;;;;;;57.78;45.72;;;22.30;53.00;;;;;;4673597;56;21491;-24
2021/10/20 08:35:42;;;;;;;58.10;46.45;;;22.40;53.20;;;;;;4648203;56;21692;-25
2021/10/20 08:40:47;;;;;;;60.50;45.47;;;22.40;53.30;;;;;;4654698;56;21042;-23
2021/10/20 08:45:49;;;;;;;57.13;44.83;;;22.40;53.40;;;;;;4648339;56;21583;-23
2021/10/20 08:50:55;;;;;;;59.65;46.22;;;22.40;53.50;;;;;;4647439;60;21136;-17
2021/10/20 08:56:00;;;;;;;61.05;47.03;;;22.40;53.70;;;;;;4685149;56;21133;-22
2021/10/20 09:01:01;;;;;;;62.95;49.28;;;22.50;54.50;;;;;;4658778;56;21536;-20
2021/10/20 09:06:01;;;;;;;66.20;50.83;;;22.50;54.00;;;;;;4657779;56;21114;-24
2021/10/20 09:11:35;;;;;;;67.35;51.05;;;22.50;54.50;;;;;;4658636;56;21564;-21
2021/10/20 09:16:42;;;;;;;70.82;53.45;;;22.50;53.70;;;;;;4685890;56;21587;-20
2021/10/20 09:22:03;;;;;;;67.57;53.25;;;22.60;53.60;;;;;;4675342;56;21030;-22
2021/10/20 09:27:16;;;;;;;74.05;54.75;;;22.60;53.50;;;;;;4657178;56;21522;-20
2021/10/20 09:32:18;;;;;;;68.03;53.35;;;22.50;53.40;;;;;;4660320;56;21047;-23
2021/10/20 09:37:19;;;;;;;72.25;53.55;;;22.50;53.50;;;;;;4674347;56;21135;-24
2021/10/20 09:42:23;;;;;;;71.95;53.42;;;22.50;53.60;;;;;;4648065;56;21127;-22
2021/10/20 09:47:25;;;;;;;66.85;52.22;;;22.60;53.80;;;;;;4296141;56;21218;-21
2021/10/20 09:52:26;;;;;;;71.03;54.08;;;22.60;53.90;;;;;;4280579;61;21705;-24
2021/10/20 09:57:31;;;;;;;69.82;54.00;;;22.60;54.10;;;;;;4269645;61;21158;-25
2021/10/20 10:02:32;;;;;;;70.10;54.78;;;22.60;54.30;;;;;;4281418;61;21539;-20
2021/10/20 10:07:33;;;;;;;72.18;56.75;;;22.70;54.40;;;;;;4282997;61;21057;-24
2021/10/20 10:12:36;;;;;;;69.72;55.47;;;22.70;54.40;;;;;;4279804;61;21750;-24
2021/10/20 10:17:40;;;;;;;73.45;55.92;;;22.70;54.50;;;;;;4283533;62;21078;-23
2021/10/20 10:22:56;;;;;;;70.05;56.58;;;22.70;54.60;;;;;;4268805;61;22222;-24
2021/10/20 10:28:22;;;;;;;72.15;56.22;;;22.70;54.50;;;;;;4275743;61;21053;-18
2021/10/20 10:33:28;;;;;;;76.00;59.08;;;22.70;54.50;;;;;;4282211;61;21475;-22
2021/10/20 10:39:31;;;;;;;77.43;60.78;;;22.70;54.60;;;;;;4287128;61;21700;-25
2021/10/20 10:44:48;;;;;;;74.90;59.28;;;22.70;54.70;;;;;;4288373;61;21130;-25
2021/10/20 10:49:55;;;;;;;74.10;60.12;;;22.70;54.70;;;;;;4302435;61;21559;-22
2021/10/20 10:57:06;;;;;;;76.45;59.17;;;22.70;54.70;;;;;;4284839;61;21555;-26
2021/10/20 11:02:46;;;;;;;76.68;61.40;;;22.70;55.30;;;;;;4276884;62;21092;-22
2021/10/20 11:07:49;;;;;;;76.53;60.90;;;22.70;54.90;;;;;;4276309;61;21551;-23
2021/10/20 11:12:52;;;;;;;75.97;61.17;;;22.70;55.50;;;;;;4278635;61;21073;-22
2021/10/20 11:17:53;;;;;;;79.65;61.25;;;22.80;55.40;;;;;;4293493;61;21492;-22
2021/10/20 11:22:56;;;;;;;79.78;62.65;;;22.70;55.60;;;;;;4268595;65;21057;-22
2021/10/20 11:27:58;;;;;;;82.37;65.40;;;22.80;55.60;;;;;;4277152;61;21145;-23
2021/10/20 11:33:01;;;;;;;83.62;65.90;;;22.80;55.80;;;;;;4275062;61;21086;-24
2021/10/20 11:38:08;;;;;;;86.90;68.95;;;22.80;55.90;;;;;;4297979;61;21124;-22
2021/10/20 11:43:18;;;;;;;84.20;66.25;;;22.90;56.10;;;;;;4275311;61;21121;-19
2021/10/20 11:48:24;;;;;;;85.78;67.22;;;22.80;56.20;;;;;;4280588;62;21138;-22
2021/10/20 11:53:29;;;;;;;90.62;70.25;;;22.90;56.50;;;;;;4289024;61;21543;-24
2021/10/20 11:58:31;;;;;;;91.60;73.18;;;22.90;56.20;;;;;;4284457;61;21109;-25
2021/10/20 12:03:39;;;;;;;96.37;75.78;;;22.90;56.10;;;;;;4290902;61;21143;-21
2021/10/20 12:08:45;;;;;;;93.95;73.20;;;22.80;56.00;;;;;;4269305;61;21115;-24
2021/10/20 12:13:47;;;;;;;95.43;76.62;;;22.80;55.90;;;;;;4306299;62;22664;-24
2021/10/20 12:18:48;;;;;;;91.55;73.97;;;22.80;55.70;;;;;;4269641;61;21200;-22
2021/10/20 12:23:49;;;;;;;88.60;73.03;;;22.80;55.60;;;;;;4279736;62;21069;-23
2021/10/20 12:28:50;;;;;;;92.50;74.78;;;22.80;55.60;;;;;;4273772;61;22324;-23
2021/10/20 12:33:52;;;;;;;94.62;73.95;;;22.80;55.50;;;;;;4300474;61;21133;-25
2021/10/20 12:38:54;;;;;;;96.07;73.07;;;22.80;55.40;;;;;;4291582;61;21109;-19
2021/10/20 12:43:58;;;;;;;90.15;71.78;;;22.80;55.60;;;;;;4281810;61;21126;-22
2021/10/20 12:49:00;;;;;;;91.37;73.85;;;22.80;55.90;;;;;;4283854;61;21157;-23
2021/10/20 12:54:05;;;;;;;94.13;73.25;;;22.80;55.90;;;;;;4286097;61;21088;-20
2021/10/20 12:59:29;;;;;;;90.60;73.07;;;22.90;55.90;;;;;;4276062;61;21058;-23
2021/10/20 13:04:30;;;;;;;108.55;87.18;;;22.90;56.80;;;;;;4308817;61;21672;-21
2021/10/20 13:09:31;;;;;;;147.00;111.40;;;22.90;55.30;;;;;;4294004;62;21081;-21
2021/10/20 13:14:32;;;;;;;166.12;129.38;;;22.80;54.10;;;;;;4308939;61;22080;-19
2021/10/20 13:19:32;;;;;;;175.93;131.25;;;22.80;52.90;;;;;;4267502;61;21527;-18
2021/10/20 13:24:33;;;;;;;177.95;134.82;;;22.80;51.90;;;;;;4269965;61;21940;-22
2021/10/20 13:29:34;;;;;;;176.50;132.93;;;22.80;51.10;;;;;;4294102;61;21115;-22
2021/10/20 13:34:35;;;;;;;171.52;128.65;;;22.70;50.60;;;;;;4267007;61;21089;-23
2021/10/20 13:39:36;;;;;;;165.40;123.50;;;22.70;49.70;;;;;;4284453;61;21090;-24
2021/10/20 13:44:39;;;;;;;160.00;121.57;;;22.70;50.60;;;;;;4277859;61;21165;-24
2021/10/20 13:49:40;;;;;;;163.90;123.87;;;22.80;50.70;;;;;;4267749;62;21249;-32
2021/10/20 13:54:41;;;;;;;161.52;122.78;;;22.70;50.80;;;;;;4274664;62;21125;-25
2021/10/20 13:59:42;;;;;;;158.95;120.43;;;22.80;51.00;;;;;;4281917;61;21069;-25
2021/10/20 14:04:43;;;;;;;153.25;118.97;;;22.80;51.30;;;;;;4268023;65;21153;-24
2021/10/20 14:09:43;;;;;;;149.77;118.95;;;22.80;51.40;;;;;;4274624;61;21511;-23
2021/10/20 14:14:48;;;;;;;141.65;113.97;;;22.80;51.50;;;;;;4298393;61;21192;-24
2021/10/20 14:19:49;;;;;;;149.95;115.15;;;22.80;51.50;;;;;;4277923;61;21085;-21
2021/10/20 14:24:50;;;;;;;151.32;117.57;;;22.80;51.60;;;;;;4270123;61;21536;-24
2021/10/20 14:29:51;;;;;;;148.52;115.05;;;22.80;51.70;;;;;;4278832;61;21089;-23
2021/10/20 14:34:52;;;;;;;144.15;111.65;;;22.70;51.60;;;;;;4280764;61;21105;-22
2021/10/20 14:39:53;;;;;;;141.27;112.47;;;22.70;51.70;;;;;;4297429;61;21595;-22
2021/10/20 14:44:58;;;;;;;145.57;112.53;;;22.70;51.60;;;;;;4270799;61;21089;-23
2021/10/20 14:49:59;;;;;;;138.05;110.72;;;22.70;51.80;;;;;;4296848;61;21058;-24
2021/10/20 14:54:59;;;;;;;138.00;109.55;;;22.70;51.90;;;;;;4270231;61;22472;-24
2021/10/20 15:00:01;;;;;;;141.75;110.55;;;22.80;52.00;;;;;;4277917;61;21118;-22
2021/10/20 15:05:01;;;;;;;139.05;110.78;;;22.80;52.20;;;;;;4279057;61;21154;-23
2021/10/20 15:10:03;;;;;;;141.60;110.30;;;22.70;52.20;;;;;;4268865;65;21069;-25
2021/10/20 15:15:05;;;;;;;140.48;110.05;;;22.70;52.40;;;;;;4277213;61;21571;-21
2021/10/20 15:20:13;;;;;;;137.88;109.87;;;22.70;52.40;;;;;;4285328;62;21085;-21
2021/10/20 15:25:17;;;;;;;140.23;110.05;;;22.60;52.40;;;;;;4280743;61;21719;-23
2021/10/20 15:30:18;;;;;;;132.75;105.00;;;22.60;52.50;;;;;;4303656;61;21073;-20
2021/10/20 15:35:20;;;;;;;131.57;106.35;;;22.60;52.50;;;;;;4287215;61;21126;-23
2021/10/20 15:40:23;;;;;;;134.32;106.07;;;22.50;52.60;;;;;;4308473;61;22340;-23
2021/10/20 15:45:24;;;;;;;131.80;103.68;;;22.50;52.60;;;;;;4270215;61;21081;-25
2021/10/20 15:50:26;;;;;;;137.30;105.72;;;22.50;52.70;;;;;;4292226;61;21069;-24
2021/10/20 15:55:27;;;;;;;134.93;104.70;;;22.50;52.80;;;;;;4284306;61;21073;-24
2021/10/20 16:00:28;;;;;;;130.60;103.50;;;22.40;52.80;;;;;;4288191;61;21097;-21
2021/10/20 16:05:29;;;;;;;130.07;103.68;;;22.40;52.80;;;;;;4288291;61;21515;-23
2021/10/20 16:10:30;;;;;;;131.50;100.93;;;22.40;52.80;;;;;;4275662;61;21097;-18
2021/10/20 16:15:32;;;;;;;126.95;102.53;;;22.40;52.90;;;;;;4269447;61;21543;-23
2021/10/20 16:20:35;;;;;;;129.52;99.05;;;22.40;53.00;;;;;;4285853;61;21539;-23
2021/10/20 16:25:37;;;;;;;124.25;99.70;;;22.40;53.00;;;;;;4268829;65;21511;-24
2021/10/20 16:30:38;;;;;;;124.68;100.15;;;22.30;52.90;;;;;;4296914;61;21531;-23
2021/10/20 16:35:39;;;;;;;126.12;100.35;;;22.30;53.00;;;;;;4275629;61;21133;-22
2021/10/20 16:40:40;;;;;;;119.22;96.05;;;22.30;53.00;;;;;;4275619;61;21137;-21
2021/10/20 16:45:42;;;;;;;126.18;98.75;;;22.30;53.00;;;;;;4278897;61;21094;-25
2021/10/20 16:50:43;;;;;;;122.50;98.10;;;22.30;53.00;;;;;;4282771;61;21129;-24
2021/10/20 16:55:44;;;;;;;118.90;97.85;;;22.30;53.00;;;;;;4268262;65;21331;-25
2021/10/20 17:00:45;;;;;;;119.37;97.12;;;22.30;53.00;;;;;;4275652;61;21170;-22
2021/10/20 17:05:45;;;;;;;120.82;96.25;;;22.30;53.00;;;;;;4276526;61;21531;-21
2021/10/20 17:10:51;;;;;;;122.78;97.28;;;22.30;53.00;;;;;;4277168;61;21066;-21
2021/10/20 17:15:53;;;;;;;118.40;93.45;;;22.30;53.10;;;;;;4290262;61;21677;-23
2021/10/20 17:20:56;;;;;;;122.87;99.13;;;22.30;53.10;;;;;;4300663;61;21122;-23
2021/10/20 17:25:57;;;;;;;121.60;95.97;;;22.30;53.10;;;;;;4270394;61;21611;-24
2021/10/20 17:30:57;;;;;;;116.97;95.95;;;22.30;53.10;;;;;;4280639;61;21046;-24
2021/10/20 17:35:58;;;;;;;119.07;94.70;;;22.30;53.10;;;;;;4289092;61;21093;-24
2021/10/20 17:40:59;;;;;;;121.97;98.80;;;22.30;53.20;;;;;;4289768;61;21102;-22
2021/10/20 17:46:00;;;;;;;116.70;95.38;;;22.20;53.10;;;;;;4270050;61;21129;-24
2021/10/20 17:51:02;;;;;;;117.03;94.60;;;22.20;53.10;;;;;;4270390;61;21097;-20
2021/10/20 17:56:04;;;;;;;118.45;94.87;;;22.30;53.10;;;;;;4268852;65;21538;-20
2021/10/20 18:01:08;;;;;;;120.57;95.75;;;22.20;53.10;;;;;;4288222;61;21535;-24
2021/10/20 18:06:10;;;;;;;120.22;94.35;;;22.20;53.10;;;;;;4273434;61;21536;-23
2021/10/20 18:11:11;;;;;;;116.65;93.75;;;22.30;53.20;;;;;;4281152;61;21069;-25
2021/10/20 18:16:12;;;;;;;113.10;93.85;;;22.20;53.10;;;;;;4283590;61;21731;-20
2021/10/20 18:21:13;;;;;;;114.10;93.12;;;22.20;53.10;;;;;;4269712;61;22427;-23
2021/10/20 18:26:18;;;;;;;118.32;95.07;;;22.20;53.10;;;;;;4275698;61;21085;-20
2021/10/20 18:31:19;;;;;;;117.80;94.18;;;22.20;53.20;;;;;;4279209;61;21540;-23
2021/10/20 18:36:21;;;;;;;118.65;95.12;;;22.20;53.10;;;;;;4276729;61;21074;-22
2021/10/20 18:41:22;;;;;;;115.10;93.47;;;22.20;53.10;;;;;;4268901;65;21493;-23
2021/10/20 18:46:24;;;;;;;112.60;92.55;;;22.20;53.10;;;;;;4269436;65;21117;-23
2021/10/20 18:51:27;;;;;;;113.22;90.43;;;22.20;53.10;;;;;;4283475;61;21077;-24
2021/10/20 18:56:29;;;;;;;117.72;94.75;;;22.20;53.10;;;;;;4269384;61;21086;-22
2021/10/20 19:01:30;;;;;;;116.20;92.97;;;22.20;53.10;;;;;;4292702;61;21065;-26
2021/10/20 19:06:33;;;;;;;115.45;91.90;;;22.20;53.10;;;;;;4308732;61;21574;-22
2021/10/20 19:11:33;;;;;;;120.55;96.57;;;22.20;53.20;;;;;;4269324;65;21595;-21
2021/10/20 19:16:35;;;;;;;114.97;93.35;;;22.20;53.10;;;;;;4270707;61;21126;-23
2021/10/20 19:21:35;;;;;;;116.32;93.30;;;22.20;53.10;;;;;;4269622;62;21488;-24
2021/10/20 19:26:39;;;;;;;115.15;93.70;;;22.10;53.10;;;;;;4283089;62;21066;-22
2021/10/20 19:31:45;;;;;;;114.97;93.65;;;22.20;53.20;;;;;;4273864;61;21089;-20
2021/10/20 19:36:47;;;;;;;112.93;90.47;;;22.20;53.10;;;;;;4268703;61;21217;-22
2021/10/20 19:41:48;;;;;;;115.75;92.88;;;22.20;53.10;;;;;;4278029;61;21674;-25
2021/10/20 19:46:49;;;;;;;115.22;93.60;;;22.20;53.10;;;;;;4274370;61;21118;-23
2021/10/20 19:51:50;;;;;;;116.93;93.03;;;22.20;53.10;;;;;;4296971;61;21086;-23
2021/10/20 19:56:52;;;;;;;116.15;94.15;;;22.20;53.10;;;;;;4271485;61;21093;-21
2021/10/20 20:01:53;;;;;;;119.07;93.68;;;22.10;53.10;;;;;;4281368;61;21697;-18
2021/10/20 20:06:54;;;;;;;118.47;93.50;;;22.10;53.10;;;;;;4291714;61;21635;-20
2021/10/20 20:11:55;;;;;;;112.97;91.57;;;22.10;53.00;;;;;;4269161;65;21559;-20
2021/10/20 20:16:56;;;;;;;115.93;91.50;;;22.10;53.00;;;;;;4286364;61;21089;-21
2021/10/20 20:21:57;;;;;;;113.10;90.62;;;22.10;53.00;;;;;;4290184;61;21172;-23
2021/10/20 20:26:58;;;;;;;119.05;94.05;;;22.10;53.00;;;;;;4284972;61;21090;-22
2021/10/20 20:31:59;;;;;;;116.55;93.15;;;22.10;53.00;;;;;;4270014;61;21326;-23
2021/10/20 20:37:00;;;;;;;116.28;91.63;;;22.10;53.00;;;;;;4269333;65;21133;-23
2021/10/20 20:42:01;;;;;;;119.28;92.47;;;22.10;53.00;;;;;;4269395;65;21105;-22
2021/10/20 20:47:02;;;;;;;112.72;90.50;;;22.10;53.00;;;;;;4270298;62;22086;-22
2021/10/20 20:52:08;;;;;;;115.20;92.22;;;22.10;53.00;;;;;;4283548;61;22144;-22
2021/10/20 20:57:09;;;;;;;115.55;93.28;;;22.10;53.00;;;;;;4283192;61;21082;-23
2021/10/20 21:02:13;;;;;;;112.03;89.53;;;22.10;53.00;;;;;;4282003;61;21531;-21
2021/10/20 21:07:14;;;;;;;115.62;92.47;;;22.10;52.90;;;;;;4288955;61;21093;-19
2021/10/20 21:12:15;;;;;;;117.22;92.95;;;22.10;53.00;;;;;;4269297;65;21614;-24
2021/10/20 21:17:16;;;;;;;116.12;91.47;;;22.10;52.90;;;;;;4274060;61;21655;-21
2021/10/20 21:22:18;;;;;;;115.75;91.47;;;22.10;52.90;;;;;;4273837;61;21097;-20
2021/10/20 21:27:19;;;;;;;119.47;92.20;;;22.10;52.90;;;;;;4271268;61;21608;-19
2021/10/20 21:32:20;;;;;;;112.30;89.70;;;22.10;52.90;;;;;;4292623;61;21070;-24
2021/10/20 21:37:21;;;;;;;109.80;87.62;;;22.10;52.90;;;;;;4269479;61;21588;-20
2021/10/20 21:42:22;;;;;;;113.65;87.07;;;22.10;52.80;;;;;;4296326;61;21099;-22
2021/10/20 21:47:26;;;;;;;111.15;88.20;;;22.10;52.80;;;;;;4301546;61;21526;-22
2021/10/20 21:52:28;;;;;;;110.18;87.93;;;22.10;52.80;;;;;;4269102;65;21652;-23
2021/10/20 21:57:29;;;;;;;115.18;88.10;;;22.10;52.80;;;;;;4288281;61;21639;-21
2021/10/20 22:02:30;;;;;;;110.40;88.18;;;22.10;52.80;;;;;;4285523;61;21537;-23
2021/10/20 22:07:32;;;;;;;116.62;89.57;;;22.10;52.70;;;;;;4283198;61;21066;-22
2021/10/20 22:12:36;;;;;;;110.22;86.97;;;22.10;52.70;;;;;;4271343;61;21070;-23
2021/10/20 22:17:37;;;;;;;112.90;88.90;;;22.10;52.70;;;;;;4280923;61;21595;-21
2021/10/20 22:22:38;;;;;;;106.80;85.85;;;22.10;52.70;;;;;;4269472;61;21587;-23
2021/10/20 22:27:40;;;;;;;108.57;86.25;;;22.10;52.70;;;;;;4280610;61;21069;-21
2021/10/20 22:32:43;;;;;;;106.95;86.30;;;22.10;52.70;;;;;;4269861;65;21065;-21
2021/10/20 22:37:44;;;;;;;106.00;86.00;;;22.10;52.70;;;;;;4280019;61;21591;-23
2021/10/20 22:42:45;;;;;;;110.95;87.82;;;22.10;52.60;;;;;;4269593;65;21163;-23
2021/10/20 22:47:46;;;;;;;105.40;84.15;;;22.00;52.60;;;;;;4303623;61;21093;-23
2021/10/20 22:52:48;;;;;;;110.30;86.00;;;22.10;52.60;;;;;;4291120;62;21097;-25
2021/10/20 22:57:49;;;;;;;109.95;84.70;;;22.10;52.60;;;;;;4281624;61;21038;-21
2021/10/20 23:02:49;;;;;;;107.03;85.35;;;22.10;52.50;;;;;;4285667;61;21091;-23
2021/10/20 23:07:51;;;;;;;105.95;83.05;;;22.10;52.50;;;;;;4278026;61;21276;-22
2021/10/20 23:12:52;;;;;;;111.10;86.18;;;22.10;52.50;;;;;;4276058;61;22694;-25
2021/10/20 23:17:53;;;;;;;109.75;86.75;;;22.00;52.40;;;;;;4268741;65;21619;-20
2021/10/20 23:22:56;;;;;;;103.40;83.82;;;22.00;52.40;;;;;;4280214;61;21060;-22
2021/10/20 23:27:56;;;;;;;108.20;84.35;;;22.00;52.40;;;;;;4279347;61;21058;-23
2021/10/20 23:33:00;;;;;;;106.40;84.68;;;22.00;52.40;;;;;;4278755;61;21516;-22
2021/10/20 23:38:01;;;;;;;109.80;82.68;;;22.00;52.30;;;;;;4268418;65;21536;-18
2021/10/20 23:43:02;;;;;;;105.37;83.03;;;22.00;52.30;;;;;;4296956;61;21082;-18
2021/10/20 23:48:05;;;;;;;105.57;81.95;;;22.00;52.30;;;;;;4285510;61;21540;-26
2021/10/20 23:53:06;;;;;;;104.45;81.80;;;22.00;52.30;;;;;;4271076;61;21050;-25
2021/10/20 23:58:07;;;;;;;102.80;80.50;;;22.00;52.20;;;;;;4269819;62;21528;-25
